sensor_id;sensor_type;location;lat;lon;timestamp;P1;durP1;ratioP1;P2;durP2;ratioP2
11283;SDS011;5698;47.332;11.180;2023-07-20T00:00:26;6.03;;;5.53;;
11283;SDS011;5698;47.332;11.180;2023-07-20T00:02:53;6.40;;;5.63;;
11283;SDS011;5698;47.332;11.180;2023-07-20T00:05:37;6.10;;;5.03;;
11283;SDS011;5698;47.332;11.180;2023-07-20T00:08:04;5.87;;;4.97;;
11283;SDS011;5698;47.332;11.180;2023-07-20T00:10:33;5.67;;;5.17;;
11283;SDS011;5698;47.332;11.180;2023-07-20T00:13:00;7.87;;;5.37;;
11283;SDS011;5698;47.332;11.180;2023-07-20T00:15:27;6.33;;;5.37;;
11283;SDS011;5698;47.332;11.180;2023-07-20T00:17:54;6.70;;;5.63;;
11283;SDS011;5698;47.332;11.180;2023-07-20T00:20:21;6.50;;;5.90;;
11283;SDS011;5698;47.332;11.180;2023-07-20T00:22:50;7.43;;;6.27;;
11283;SDS011;5698;47.332;11.180;2023-07-20T00:25:17;7.63;;;6.37;;
11283;SDS011;5698;47.332;11.180;2023-07-20T00:27:45;7.00;;;6.30;;
11283;SDS011;5698;47.332;11.180;2023-07-20T00:30:13;7.03;;;5.83;;
11283;SDS011;5698;47.332;11.180;2023-07-20T00:32:40;8.40;;;5.50;;
11283;SDS011;5698;47.332;11.180;2023-07-20T00:35:08;7.97;;;5.13;;
11283;SDS011;5698;47.332;11.180;2023-07-20T00:37:36;6.07;;;5.20;;
11283;SDS011;5698;47.332;11.180;2023-07-20T00:40:03;9.07;;;5.33;;
11283;SDS011;5698;47.332;11.180;2023-07-20T00:42:32;6.40;;;5.17;;
11283;SDS011;5698;47.332;11.180;2023-07-20T00:45:00;5.90;;;5.33;;
11283;SDS011;5698;47.332;11.180;2023-07-20T00:47:28;6.33;;;5.73;;
11283;SDS011;5698;47.332;11.180;2023-07-20T00:49:55;6.20;;;4.90;;
11283;SDS011;5698;47.332;11.180;2023-07-20T00:52:22;5.00;;;4.53;;
11283;SDS011;5698;47.332;11.180;2023-07-20T00:54:51;8.10;;;4.70;;
11283;SDS011;5698;47.332;11.180;2023-07-20T00:57:21;7.37;;;5.00;;
11283;SDS011;5698;47.332;11.180;2023-07-20T00:59:50;5.63;;;4.90;;
11283;SDS011;5698;47.332;11.180;2023-07-20T01:02:19;5.37;;;4.87;;
11283;SDS011;5698;47.332;11.180;2023-07-20T01:04:46;4.80;;;4.30;;
11283;SDS011;5698;47.332;11.180;2023-07-20T01:07:14;5.77;;;4.43;;
11283;SDS011;5698;47.332;11.180;2023-07-20T01:09:50;4.90;;;4.17;;
11283;SDS011;5698;47.332;11.180;2023-07-20T01:12:22;5.20;;;3.97;;
11283;SDS011;5698;47.332;11.180;2023-07-20T01:14:52;5.57;;;4.10;;
11283;SDS011;5698;47.332;11.180;2023-07-20T01:17:21;4.70;;;4.30;;
11283;SDS011;5698;47.332;11.180;2023-07-20T01:19:49;4.90;;;4.40;;
11283;SDS011;5698;47.332;11.180;2023-07-20T01:22:21;5.07;;;4.20;;
11283;SDS011;5698;47.332;11.180;2023-07-20T01:25:09;3.90;;;3.53;;
11283;SDS011;5698;47.332;11.180;2023-07-20T01:28:03;5.07;;;3.70;;
11283;SDS011;5698;47.332;11.180;2023-07-20T01:30:59;4.40;;;3.47;;
11283;SDS011;5698;47.332;11.180;2023-07-20T01:33:52;5.07;;;3.70;;
11283;SDS011;5698;47.332;11.180;2023-07-20T01:36:21;5.17;;;3.90;;
11283;SDS011;5698;47.332;11.180;2023-07-20T01:38:50;7.13;;;3.87;;
11283;SDS011;5698;47.332;11.180;2023-07-20T01:41:18;4.10;;;3.40;;
11283;SDS011;5698;47.332;11.180;2023-07-20T01:43:46;4.40;;;3.67;;
11283;SDS011;5698;47.332;11.180;2023-07-20T01:46:13;4.87;;;3.97;;
11283;SDS011;5698;47.332;11.180;2023-07-20T01:48:40;4.10;;;3.70;;
11283;SDS011;5698;47.332;11.180;2023-07-20T01:51:08;4.80;;;3.87;;
11283;SDS011;5698;47.332;11.180;2023-07-20T01:53:37;4.53;;;3.97;;
11283;SDS011;5698;47.332;11.180;2023-07-20T01:56:04;5.77;;;3.97;;
11283;SDS011;5698;47.332;11.180;2023-07-20T01:58:31;5.47;;;4.20;;
11283;SDS011;5698;47.332;11.180;2023-07-20T02:00:58;6.00;;;3.87;;
11283;SDS011;5698;47.332;11.180;2023-07-20T02:03:25;6.27;;;3.83;;
11283;SDS011;5698;47.332;11.180;2023-07-20T02:05:52;4.43;;;4.00;;
11283;SDS011;5698;47.332;11.180;2023-07-20T02:08:20;4.37;;;3.80;;
11283;SDS011;5698;47.332;11.180;2023-07-20T02:10:47;4.33;;;3.67;;
11283;SDS011;5698;47.332;11.180;2023-07-20T02:13:15;5.10;;;3.87;;
11283;SDS011;5698;47.332;11.180;2023-07-20T02:15:42;4.53;;;3.80;;
11283;SDS011;5698;47.332;11.180;2023-07-20T02:18:09;5.60;;;4.13;;
11283;SDS011;5698;47.332;11.180;2023-07-20T02:20:36;7.43;;;4.70;;
11283;SDS011;5698;47.332;11.180;2023-07-20T02:23:03;4.67;;;4.10;;
11283;SDS011;5698;47.332;11.180;2023-07-20T02:25:32;4.30;;;3.90;;
11283;SDS011;5698;47.332;11.180;2023-07-20T02:27:59;5.20;;;3.70;;
11283;SDS011;5698;47.332;11.180;2023-07-20T02:30:26;4.13;;;3.50;;
11283;SDS011;5698;47.332;11.180;2023-07-20T02:32:53;4.70;;;4.20;;
11283;SDS011;5698;47.332;11.180;2023-07-20T02:35:23;5.30;;;4.50;;
11283;SDS011;5698;47.332;11.180;2023-07-20T02:37:51;4.40;;;4.00;;
11283;SDS011;5698;47.332;11.180;2023-07-20T02:40:18;5.90;;;4.23;;
11283;SDS011;5698;47.332;11.180;2023-07-20T02:42:46;5.47;;;3.97;;
11283;SDS011;5698;47.332;11.180;2023-07-20T02:45:13;4.97;;;3.87;;
11283;SDS011;5698;47.332;11.180;2023-07-20T02:47:41;4.47;;;3.73;;
11283;SDS011;5698;47.332;11.180;2023-07-20T02:50:09;4.43;;;3.93;;
11283;SDS011;5698;47.332;11.180;2023-07-20T02:52:38;4.30;;;3.77;;
11283;SDS011;5698;47.332;11.180;2023-07-20T02:55:06;3.60;;;3.30;;
11283;SDS011;5698;47.332;11.180;2023-07-20T02:57:33;5.43;;;3.60;;
11283;SDS011;5698;47.332;11.180;2023-07-20T03:00:02;4.43;;;3.97;;
11283;SDS011;5698;47.332;11.180;2023-07-20T03:02:30;3.87;;;3.57;;
11283;SDS011;5698;47.332;11.180;2023-07-20T03:04:58;3.60;;;3.30;;
11283;SDS011;5698;47.332;11.180;2023-07-20T03:07:26;5.23;;;3.97;;
11283;SDS011;5698;47.332;11.180;2023-07-20T03:09:54;5.50;;;3.60;;
11283;SDS011;5698;47.332;11.180;2023-07-20T03:12:21;6.60;;;4.50;;
11283;SDS011;5698;47.332;11.180;2023-07-20T03:14:49;5.30;;;4.13;;
11283;SDS011;5698;47.332;11.180;2023-07-20T03:17:18;4.43;;;4.03;;
11283;SDS011;5698;47.332;11.180;2023-07-20T03:19:45;3.87;;;3.47;;
11283;SDS011;5698;47.332;11.180;2023-07-20T03:22:12;4.20;;;3.80;;
11283;SDS011;5698;47.332;11.180;2023-07-20T03:24:39;3.83;;;3.43;;
11283;SDS011;5698;47.332;11.180;2023-07-20T03:27:06;4.63;;;3.50;;
11283;SDS011;5698;47.332;11.180;2023-07-20T03:29:33;5.03;;;3.53;;
11283;SDS011;5698;47.332;11.180;2023-07-20T03:32:00;4.47;;;4.07;;
11283;SDS011;5698;47.332;11.180;2023-07-20T03:34:29;4.60;;;4.20;;
11283;SDS011;5698;47.332;11.180;2023-07-20T03:36:56;5.73;;;3.80;;
11283;SDS011;5698;47.332;11.180;2023-07-20T03:39:24;4.23;;;3.83;;
11283;SDS011;5698;47.332;11.180;2023-07-20T03:41:51;5.37;;;3.97;;
11283;SDS011;5698;47.332;11.180;2023-07-20T03:44:18;5.67;;;3.87;;
11283;SDS011;5698;47.332;11.180;2023-07-20T03:46:45;4.23;;;3.83;;
11283;SDS011;5698;47.332;11.180;2023-07-20T03:49:12;4.20;;;3.63;;
11283;SDS011;5698;47.332;11.180;2023-07-20T03:51:40;4.40;;;3.70;;
11283;SDS011;5698;47.332;11.180;2023-07-20T03:54:07;5.53;;;4.00;;
11283;SDS011;5698;47.332;11.180;2023-07-20T03:56:34;4.23;;;3.67;;
11283;SDS011;5698;47.332;11.180;2023-07-20T03:59:01;4.40;;;4.00;;
11283;SDS011;5698;47.332;11.180;2023-07-20T04:01:29;4.37;;;3.53;;
11283;SDS011;5698;47.332;11.180;2023-07-20T04:04:04;4.00;;;3.70;;
11283;SDS011;5698;47.332;11.180;2023-07-20T04:06:32;4.13;;;3.73;;
11283;SDS011;5698;47.332;11.180;2023-07-20T04:09:01;5.10;;;4.30;;
11283;SDS011;5698;47.332;11.180;2023-07-20T04:11:30;9.03;;;4.33;;
11283;SDS011;5698;47.332;11.180;2023-07-20T04:13:57;4.67;;;4.10;;
11283;SDS011;5698;47.332;11.180;2023-07-20T04:16:24;4.10;;;3.57;;
11283;SDS011;5698;47.332;11.180;2023-07-20T04:18:52;7.23;;;4.07;;
11283;SDS011;5698;47.332;11.180;2023-07-20T04:21:20;4.00;;;3.70;;
11283;SDS011;5698;47.332;11.180;2023-07-20T04:23:47;4.50;;;3.77;;
11283;SDS011;5698;47.332;11.180;2023-07-20T04:26:16;4.50;;;3.83;;
11283;SDS011;5698;47.332;11.180;2023-07-20T04:28:43;5.13;;;4.47;;
11283;SDS011;5698;47.332;11.180;2023-07-20T04:31:10;5.47;;;4.53;;
11283;SDS011;5698;47.332;11.180;2023-07-20T04:33:37;6.70;;;5.07;;
11283;SDS011;5698;47.332;11.180;2023-07-20T04:36:04;5.30;;;4.73;;
11283;SDS011;5698;47.332;11.180;2023-07-20T04:38:32;4.93;;;4.43;;
11283;SDS011;5698;47.332;11.180;2023-07-20T04:40:59;5.30;;;4.80;;
11283;SDS011;5698;47.332;11.180;2023-07-20T04:43:28;5.60;;;4.43;;
11283;SDS011;5698;47.332;11.180;2023-07-20T04:45:56;4.93;;;4.43;;
11283;SDS011;5698;47.332;11.180;2023-07-20T04:48:23;5.43;;;3.87;;
11283;SDS011;5698;47.332;11.180;2023-07-20T04:50:50;5.03;;;3.90;;
11283;SDS011;5698;47.332;11.180;2023-07-20T04:53:17;4.73;;;4.03;;
11283;SDS011;5698;47.332;11.180;2023-07-20T04:55:48;6.60;;;4.70;;
11283;SDS011;5698;47.332;11.180;2023-07-20T04:58:17;4.57;;;4.07;;
11283;SDS011;5698;47.332;11.180;2023-07-20T05:00:45;6.10;;;4.60;;
11283;SDS011;5698;47.332;11.180;2023-07-20T05:03:14;4.30;;;3.90;;
11283;SDS011;5698;47.332;11.180;2023-07-20T05:05:41;4.90;;;4.10;;
11283;SDS011;5698;47.332;11.180;2023-07-20T05:08:08;5.40;;;4.27;;
11283;SDS011;5698;47.332;11.180;2023-07-20T05:10:35;4.77;;;4.10;;
11283;SDS011;5698;47.332;11.180;2023-07-20T05:13:02;5.10;;;4.30;;
11283;SDS011;5698;47.332;11.180;2023-07-20T05:15:29;4.47;;;4.07;;
11283;SDS011;5698;47.332;11.180;2023-07-20T05:17:57;5.53;;;3.90;;
11283;SDS011;5698;47.332;11.180;2023-07-20T05:20:24;5.70;;;3.90;;
11283;SDS011;5698;47.332;11.180;2023-07-20T05:22:51;4.33;;;3.83;;
11283;SDS011;5698;47.332;11.180;2023-07-20T05:25:18;4.57;;;4.23;;
11283;SDS011;5698;47.332;11.180;2023-07-20T05:27:47;4.30;;;3.90;;
11283;SDS011;5698;47.332;11.180;2023-07-20T05:30:15;4.07;;;3.67;;
11283;SDS011;5698;47.332;11.180;2023-07-20T05:32:42;5.47;;;4.53;;
11283;SDS011;5698;47.332;11.180;2023-07-20T05:35:12;5.20;;;3.80;;
11283;SDS011;5698;47.332;11.180;2023-07-20T05:37:40;4.30;;;3.70;;
11283;SDS011;5698;47.332;11.180;2023-07-20T05:40:08;4.57;;;4.17;;
11283;SDS011;5698;47.332;11.180;2023-07-20T05:42:37;4.57;;;3.60;;
11283;SDS011;5698;47.332;11.180;2023-07-20T05:45:04;4.57;;;4.17;;
11283;SDS011;5698;47.332;11.180;2023-07-20T05:47:32;3.80;;;3.43;;
11283;SDS011;5698;47.332;11.180;2023-07-20T05:49:59;4.77;;;3.93;;
11283;SDS011;5698;47.332;11.180;2023-07-20T05:52:27;5.60;;;4.47;;
11283;SDS011;5698;47.332;11.180;2023-07-20T05:54:54;7.60;;;3.97;;
11283;SDS011;5698;47.332;11.180;2023-07-20T05:57:21;5.50;;;4.00;;
11283;SDS011;5698;47.332;11.180;2023-07-20T05:59:48;4.33;;;3.93;;
11283;SDS011;5698;47.332;11.180;2023-07-20T06:02:15;4.10;;;3.70;;
11283;SDS011;5698;47.332;11.180;2023-07-20T06:04:42;4.73;;;3.80;;
11283;SDS011;5698;47.332;11.180;2023-07-20T06:07:09;4.23;;;3.70;;
11283;SDS011;5698;47.332;11.180;2023-07-20T06:09:38;5.27;;;4.10;;
11283;SDS011;5698;47.332;11.180;2023-07-20T06:12:06;4.60;;;4.00;;
11283;SDS011;5698;47.332;11.180;2023-07-20T06:14:34;5.90;;;4.17;;
11283;SDS011;5698;47.332;11.180;2023-07-20T06:17:01;7.07;;;4.33;;
11283;SDS011;5698;47.332;11.180;2023-07-20T06:19:28;4.70;;;3.87;;
11283;SDS011;5698;47.332;11.180;2023-07-20T06:21:55;4.93;;;3.60;;
11283;SDS011;5698;47.332;11.180;2023-07-20T06:24:23;5.40;;;3.80;;
11283;SDS011;5698;47.332;11.180;2023-07-20T06:26:51;4.77;;;3.80;;
11283;SDS011;5698;47.332;11.180;2023-07-20T06:29:18;4.80;;;3.40;;
11283;SDS011;5698;47.332;11.180;2023-07-20T06:31:45;5.03;;;3.43;;
11283;SDS011;5698;47.332;11.180;2023-07-20T06:34:12;4.60;;;3.80;;
11283;SDS011;5698;47.332;11.180;2023-07-20T06:36:39;4.67;;;3.63;;
11283;SDS011;5698;47.332;11.180;2023-07-20T06:39:06;4.77;;;3.50;;
11283;SDS011;5698;47.332;11.180;2023-07-20T06:41:33;3.80;;;2.87;;
11283;SDS011;5698;47.332;11.180;2023-07-20T06:44:02;4.30;;;3.30;;
11283;SDS011;5698;47.332;11.180;2023-07-20T06:46:30;5.83;;;3.20;;
11283;SDS011;5698;47.332;11.180;2023-07-20T06:48:57;4.20;;;3.10;;
11283;SDS011;5698;47.332;11.180;2023-07-20T06:51:24;5.17;;;3.40;;
11283;SDS011;5698;47.332;11.180;2023-07-20T06:53:51;3.30;;;3.00;;
11283;SDS011;5698;47.332;11.180;2023-07-20T06:56:18;5.17;;;3.23;;
11283;SDS011;5698;47.332;11.180;2023-07-20T06:58:45;7.03;;;3.07;;
11283;SDS011;5698;47.332;11.180;2023-07-20T07:01:13;3.90;;;3.00;;
11283;SDS011;5698;47.332;11.180;2023-07-20T07:03:42;3.50;;;3.20;;
11283;SDS011;5698;47.332;11.180;2023-07-20T07:06:09;4.50;;;3.20;;
11283;SDS011;5698;47.332;11.180;2023-07-20T07:08:36;3.40;;;3.07;;
11283;SDS011;5698;47.332;11.180;2023-07-20T07:11:03;6.50;;;3.40;;
11283;SDS011;5698;47.332;11.180;2023-07-20T07:13:30;5.47;;;3.53;;
11283;SDS011;5698;47.332;11.180;2023-07-20T07:15:57;5.17;;;3.37;;
11283;SDS011;5698;47.332;11.180;2023-07-20T07:18:25;3.73;;;2.73;;
11283;SDS011;5698;47.332;11.180;2023-07-20T07:20:53;4.17;;;3.07;;
11283;SDS011;5698;47.332;11.180;2023-07-20T07:23:20;6.50;;;3.50;;
11283;SDS011;5698;47.332;11.180;2023-07-20T07:25:47;3.10;;;2.80;;
11283;SDS011;5698;47.332;11.180;2023-07-20T07:28:14;4.97;;;2.90;;
11283;SDS011;5698;47.332;11.180;2023-07-20T07:30:41;5.53;;;3.07;;
11283;SDS011;5698;47.332;11.180;2023-07-20T07:33:08;2.90;;;2.50;;
11283;SDS011;5698;47.332;11.180;2023-07-20T07:35:38;3.60;;;2.70;;
11283;SDS011;5698;47.332;11.180;2023-07-20T07:38:05;6.47;;;2.60;;
11283;SDS011;5698;47.332;11.180;2023-07-20T07:40:32;3.03;;;2.63;;
11283;SDS011;5698;47.332;11.180;2023-07-20T07:42:59;3.93;;;2.70;;
11283;SDS011;5698;47.332;11.180;2023-07-20T07:45:26;3.67;;;2.73;;
11283;SDS011;5698;47.332;11.180;2023-07-20T07:47:53;3.57;;;2.60;;
11283;SDS011;5698;47.332;11.180;2023-07-20T07:50:20;4.50;;;2.57;;
11283;SDS011;5698;47.332;11.180;2023-07-20T07:52:48;4.37;;;2.83;;
11283;SDS011;5698;47.332;11.180;2023-07-20T07:55:15;6.37;;;3.03;;
11283;SDS011;5698;47.332;11.180;2023-07-20T07:57:43;3.60;;;3.03;;
11283;SDS011;5698;47.332;11.180;2023-07-20T08:00:10;4.00;;;2.80;;
11283;SDS011;5698;47.332;11.180;2023-07-20T08:02:40;5.70;;;3.40;;
11283;SDS011;5698;47.332;11.180;2023-07-20T08:05:08;7.33;;;3.67;;
11283;SDS011;5698;47.332;11.180;2023-07-20T08:07:36;6.53;;;3.10;;
11283;SDS011;5698;47.332;11.180;2023-07-20T08:10:05;4.50;;;3.27;;
11283;SDS011;5698;47.332;11.180;2023-07-20T08:12:33;4.33;;;2.80;;
11283;SDS011;5698;47.332;11.180;2023-07-20T08:15:00;4.47;;;2.63;;
11283;SDS011;5698;47.332;11.180;2023-07-20T08:17:29;5.00;;;2.70;;
11283;SDS011;5698;47.332;11.180;2023-07-20T08:19:56;3.73;;;2.93;;
11283;SDS011;5698;47.332;11.180;2023-07-20T08:22:23;4.53;;;2.60;;
11283;SDS011;5698;47.332;11.180;2023-07-20T08:24:50;4.50;;;2.83;;
11283;SDS011;5698;47.332;11.180;2023-07-20T08:27:18;5.80;;;3.20;;
11283;SDS011;5698;47.332;11.180;2023-07-20T08:29:45;21.83;;;4.50;;
11283;SDS011;5698;47.332;11.180;2023-07-20T08:32:13;6.27;;;3.27;;
11283;SDS011;5698;47.332;11.180;2023-07-20T08:34:40;6.27;;;3.53;;
11283;SDS011;5698;47.332;11.180;2023-07-20T08:37:08;3.70;;;2.80;;
11283;SDS011;5698;47.332;11.180;2023-07-20T08:39:35;5.73;;;3.20;;
11283;SDS011;5698;47.332;11.180;2023-07-20T08:42:02;4.30;;;2.67;;
11283;SDS011;5698;47.332;11.180;2023-07-20T08:44:33;3.43;;;2.73;;
11283;SDS011;5698;47.332;11.180;2023-07-20T08:47:00;5.00;;;3.10;;
11283;SDS011;5698;47.332;11.180;2023-07-20T08:49:29;4.33;;;2.80;;
11283;SDS011;5698;47.332;11.180;2023-07-20T08:51:57;5.53;;;2.57;;
11283;SDS011;5698;47.332;11.180;2023-07-20T08:54:25;3.93;;;2.53;;
11283;SDS011;5698;47.332;11.180;2023-07-20T08:56:58;3.60;;;2.93;;
11283;SDS011;5698;47.332;11.180;2023-07-20T08:59:29;3.87;;;2.67;;
11283;SDS011;5698;47.332;11.180;2023-07-20T09:01:59;3.80;;;2.60;;
11283;SDS011;5698;47.332;11.180;2023-07-20T09:04:27;4.47;;;2.60;;
11283;SDS011;5698;47.332;11.180;2023-07-20T09:06:54;2.60;;;2.37;;
11283;SDS011;5698;47.332;11.180;2023-07-20T09:09:22;2.67;;;2.43;;
11283;SDS011;5698;47.332;11.180;2023-07-20T09:11:49;3.93;;;2.80;;
11283;SDS011;5698;47.332;11.180;2023-07-20T09:14:16;3.53;;;2.53;;
11283;SDS011;5698;47.332;11.180;2023-07-20T09:16:47;3.07;;;2.67;;
11283;SDS011;5698;47.332;11.180;2023-07-20T09:19:16;4.27;;;2.93;;
11283;SDS011;5698;47.332;11.180;2023-07-20T09:21:44;5.40;;;2.70;;
11283;SDS011;5698;47.332;11.180;2023-07-20T09:24:12;3.80;;;2.20;;
11283;SDS011;5698;47.332;11.180;2023-07-20T09:26:40;4.60;;;2.70;;
11283;SDS011;5698;47.332;11.180;2023-07-20T09:29:09;5.00;;;2.63;;
11283;SDS011;5698;47.332;11.180;2023-07-20T09:31:36;3.47;;;2.30;;
11283;SDS011;5698;47.332;11.180;2023-07-20T09:34:05;4.20;;;2.77;;
11283;SDS011;5698;47.332;11.180;2023-07-20T09:36:34;4.00;;;2.90;;
11283;SDS011;5698;47.332;11.180;2023-07-20T09:39:03;3.00;;;2.70;;
11283;SDS011;5698;47.332;11.180;2023-07-20T09:41:39;4.23;;;2.60;;
11283;SDS011;5698;47.332;11.180;2023-07-20T09:44:07;4.10;;;2.50;;
11283;SDS011;5698;47.332;11.180;2023-07-20T09:46:41;3.73;;;2.40;;
11283;SDS011;5698;47.332;11.180;2023-07-20T09:49:09;4.23;;;2.50;;
11283;SDS011;5698;47.332;11.180;2023-07-20T09:51:38;3.63;;;2.70;;
11283;SDS011;5698;47.332;11.180;2023-07-20T09:54:05;2.20;;;2.00;;
11283;SDS011;5698;47.332;11.180;2023-07-20T09:56:34;2.77;;;2.40;;
11283;SDS011;5698;47.332;11.180;2023-07-20T09:59:01;3.20;;;2.43;;
11283;SDS011;5698;47.332;11.180;2023-07-20T10:01:29;4.23;;;2.37;;
11283;SDS011;5698;47.332;11.180;2023-07-20T10:03:59;3.50;;;2.40;;
11283;SDS011;5698;47.332;11.180;2023-07-20T10:06:30;3.10;;;2.60;;
11283;SDS011;5698;47.332;11.180;2023-07-20T10:09:01;2.83;;;2.60;;
11283;SDS011;5698;47.332;11.180;2023-07-20T10:11:31;3.70;;;2.57;;
11283;SDS011;5698;47.332;11.180;2023-07-20T10:14:02;4.30;;;2.40;;
11283;SDS011;5698;47.332;11.180;2023-07-20T10:16:33;3.73;;;2.57;;
11283;SDS011;5698;47.332;11.180;2023-07-20T10:19:03;2.67;;;2.33;;
11283;SDS011;5698;47.332;11.180;2023-07-20T10:21:33;4.00;;;2.40;;
11283;SDS011;5698;47.332;11.180;2023-07-20T10:24:06;1.90;;;1.80;;
11283;SDS011;5698;47.332;11.180;2023-07-20T10:26:34;2.47;;;2.27;;
11283;SDS011;5698;47.332;11.180;2023-07-20T10:29:01;3.73;;;2.80;;
11283;SDS011;5698;47.332;11.180;2023-07-20T10:31:28;2.87;;;2.43;;
11283;SDS011;5698;47.332;11.180;2023-07-20T10:33:56;2.57;;;2.20;;
11283;SDS011;5698;47.332;11.180;2023-07-20T10:36:24;2.80;;;2.47;;
11283;SDS011;5698;47.332;11.180;2023-07-20T10:38:53;2.60;;;2.40;;
11283;SDS011;5698;47.332;11.180;2023-07-20T10:41:28;4.00;;;2.50;;
11283;SDS011;5698;47.332;11.180;2023-07-20T10:44:00;2.73;;;2.47;;
11283;SDS011;5698;47.332;11.180;2023-07-20T10:46:34;2.50;;;2.20;;
11283;SDS011;5698;47.332;11.180;2023-07-20T10:49:10;4.23;;;2.53;;
11283;SDS011;5698;47.332;11.180;2023-07-20T10:51:39;3.47;;;2.50;;
11283;SDS011;5698;47.332;11.180;2023-07-20T10:54:08;3.50;;;2.20;;
11283;SDS011;5698;47.332;11.180;2023-07-20T10:56:58;3.73;;;2.43;;
11283;SDS011;5698;47.332;11.180;2023-07-20T10:59:51;5.27;;;2.60;;
11283;SDS011;5698;47.332;11.180;2023-07-20T11:02:41;2.93;;;2.47;;
11283;SDS011;5698;47.332;11.180;2023-07-20T11:05:33;2.80;;;2.20;;
11283;SDS011;5698;47.332;11.180;2023-07-20T11:08:05;3.30;;;2.33;;
11283;SDS011;5698;47.332;11.180;2023-07-20T11:10:35;2.70;;;2.30;;
11283;SDS011;5698;47.332;11.180;2023-07-20T11:16:03;3.37;;;2.20;;
11283;SDS011;5698;47.332;11.180;2023-07-20T11:18:33;3.37;;;2.40;;
11283;SDS011;5698;47.332;11.180;2023-07-20T11:21:06;2.43;;;2.23;;
11283;SDS011;5698;47.332;11.180;2023-07-20T11:23:34;2.73;;;2.43;;
11283;SDS011;5698;47.332;11.180;2023-07-20T11:26:04;3.23;;;2.30;;
11283;SDS011;5698;47.332;11.180;2023-07-20T11:28:33;3.97;;;2.43;;
11283;SDS011;5698;47.332;11.180;2023-07-20T11:31:00;3.47;;;2.07;;
11283;SDS011;5698;47.332;11.180;2023-07-20T11:33:27;2.63;;;2.23;;
11283;SDS011;5698;47.332;11.180;2023-07-20T11:35:54;4.23;;;2.50;;
11283;SDS011;5698;47.332;11.180;2023-07-20T11:38:21;2.40;;;2.07;;
11283;SDS011;5698;47.332;11.180;2023-07-20T11:40:50;3.53;;;2.60;;
11283;SDS011;5698;47.332;11.180;2023-07-20T11:43:17;3.40;;;2.10;;
11283;SDS011;5698;47.332;11.180;2023-07-20T11:45:47;2.30;;;2.10;;
11283;SDS011;5698;47.332;11.180;2023-07-20T11:48:15;2.43;;;2.23;;
11283;SDS011;5698;47.332;11.180;2023-07-20T11:50:42;4.80;;;2.70;;
11283;SDS011;5698;47.332;11.180;2023-07-20T11:53:09;4.67;;;3.10;;
11283;SDS011;5698;47.332;11.180;2023-07-20T11:55:37;3.10;;;2.77;;
11283;SDS011;5698;47.332;11.180;2023-07-20T11:58:06;3.07;;;2.23;;
11283;SDS011;5698;47.332;11.180;2023-07-20T12:00:34;2.83;;;2.53;;
11283;SDS011;5698;47.332;11.180;2023-07-20T12:03:04;3.23;;;2.70;;
11283;SDS011;5698;47.332;11.180;2023-07-20T12:05:32;5.37;;;2.33;;
11283;SDS011;5698;47.332;11.180;2023-07-20T12:07:59;2.80;;;2.10;;
11283;SDS011;5698;47.332;11.180;2023-07-20T12:10:27;4.07;;;2.97;;
11283;SDS011;5698;47.332;11.180;2023-07-20T12:13:00;2.27;;;2.07;;
11283;SDS011;5698;47.332;11.180;2023-07-20T12:15:27;5.57;;;2.63;;
11283;SDS011;5698;47.332;11.180;2023-07-20T12:17:55;4.20;;;2.40;;
11283;SDS011;5698;47.332;11.180;2023-07-20T12:20:29;3.50;;;2.37;;
11283;SDS011;5698;47.332;11.180;2023-07-20T12:22:58;6.67;;;2.53;;
11283;SDS011;5698;47.332;11.180;2023-07-20T12:25:38;2.97;;;2.10;;
11283;SDS011;5698;47.332;11.180;2023-07-20T12:28:06;4.53;;;2.53;;
11283;SDS011;5698;47.332;11.180;2023-07-20T12:30:34;3.13;;;2.67;;
11283;SDS011;5698;47.332;11.180;2023-07-20T12:33:02;2.13;;;1.93;;
11283;SDS011;5698;47.332;11.180;2023-07-20T12:35:31;2.93;;;2.33;;
11283;SDS011;5698;47.332;11.180;2023-07-20T12:37:58;2.83;;;2.10;;
11283;SDS011;5698;47.332;11.180;2023-07-20T12:40:26;2.33;;;2.13;;
11283;SDS011;5698;47.332;11.180;2023-07-20T12:42:53;5.10;;;2.33;;
11283;SDS011;5698;47.332;11.180;2023-07-20T12:45:20;3.57;;;2.30;;
11283;SDS011;5698;47.332;11.180;2023-07-20T12:47:47;2.70;;;2.50;;
11283;SDS011;5698;47.332;11.180;2023-07-20T12:50:14;2.57;;;2.37;;
11283;SDS011;5698;47.332;11.180;2023-07-20T12:52:42;4.70;;;2.30;;
11283;SDS011;5698;47.332;11.180;2023-07-20T12:55:09;2.50;;;2.30;;
11283;SDS011;5698;47.332;11.180;2023-07-20T12:57:37;3.23;;;2.40;;
11283;SDS011;5698;47.332;11.180;2023-07-20T13:00:04;3.30;;;2.47;;
11283;SDS011;5698;47.332;11.180;2023-07-20T13:02:34;2.60;;;2.40;;
11283;SDS011;5698;47.332;11.180;2023-07-20T13:05:01;5.07;;;2.37;;
11283;SDS011;5698;47.332;11.180;2023-07-20T13:07:29;4.10;;;2.20;;
11283;SDS011;5698;47.332;11.180;2023-07-20T13:09:59;2.80;;;2.53;;
11283;SDS011;5698;47.332;11.180;2023-07-20T13:12:26;3.03;;;2.20;;
11283;SDS011;5698;47.332;11.180;2023-07-20T13:14:54;2.53;;;2.30;;
11283;SDS011;5698;47.332;11.180;2023-07-20T13:17:21;5.17;;;2.40;;
11283;SDS011;5698;47.332;11.180;2023-07-20T13:19:48;2.20;;;2.00;;
11283;SDS011;5698;47.332;11.180;2023-07-20T13:22:15;3.73;;;2.20;;
11283;SDS011;5698;47.332;11.180;2023-07-20T13:24:44;2.30;;;1.93;;
11283;SDS011;5698;47.332;11.180;2023-07-20T13:27:15;3.53;;;2.20;;
11283;SDS011;5698;47.332;11.180;2023-07-20T13:29:43;2.53;;;2.17;;
11283;SDS011;5698;47.332;11.180;2023-07-20T13:32:12;2.33;;;2.13;;
11283;SDS011;5698;47.332;11.180;2023-07-20T13:34:39;5.00;;;2.67;;
11283;SDS011;5698;47.332;11.180;2023-07-20T13:37:08;3.63;;;2.60;;
11283;SDS011;5698;47.332;11.180;2023-07-20T13:39:36;2.87;;;2.23;;
11283;SDS011;5698;47.332;11.180;2023-07-20T13:42:03;2.83;;;2.10;;
11283;SDS011;5698;47.332;11.180;2023-07-20T13:44:32;4.60;;;2.30;;
11283;SDS011;5698;47.332;11.180;2023-07-20T13:46:59;2.83;;;2.17;;
11283;SDS011;5698;47.332;11.180;2023-07-20T13:49:26;3.73;;;2.10;;
11283;SDS011;5698;47.332;11.180;2023-07-20T13:51:54;3.50;;;2.40;;
11283;SDS011;5698;47.332;11.180;2023-07-20T13:54:22;3.23;;;2.07;;
11283;SDS011;5698;47.332;11.180;2023-07-20T13:56:49;2.53;;;2.33;;
11283;SDS011;5698;47.332;11.180;2023-07-20T13:59:16;2.43;;;2.23;;
11283;SDS011;5698;47.332;11.180;2023-07-20T14:01:45;4.73;;;2.20;;
11283;SDS011;5698;47.332;11.180;2023-07-20T14:04:12;5.70;;;2.27;;
11283;SDS011;5698;47.332;11.180;2023-07-20T14:06:39;3.90;;;2.23;;
11283;SDS011;5698;47.332;11.180;2023-07-20T14:09:06;2.97;;;2.20;;
11283;SDS011;5698;47.332;11.180;2023-07-20T14:11:33;5.03;;;2.10;;
11283;SDS011;5698;47.332;11.180;2023-07-20T14:14:00;3.57;;;2.30;;
11283;SDS011;5698;47.332;11.180;2023-07-20T14:16:27;2.93;;;2.30;;
11283;SDS011;5698;47.332;11.180;2023-07-20T14:18:55;3.00;;;2.23;;
11283;SDS011;5698;47.332;11.180;2023-07-20T14:21:23;4.17;;;2.50;;
11283;SDS011;5698;47.332;11.180;2023-07-20T14:23:50;3.20;;;2.20;;
11283;SDS011;5698;47.332;11.180;2023-07-20T14:26:18;3.07;;;2.40;;
11283;SDS011;5698;47.332;11.180;2023-07-20T14:28:45;2.77;;;2.10;;
11283;SDS011;5698;47.332;11.180;2023-07-20T14:31:12;2.90;;;2.07;;
11283;SDS011;5698;47.332;11.180;2023-07-20T14:33:39;2.50;;;2.10;;
11283;SDS011;5698;47.332;11.180;2023-07-20T14:36:08;2.60;;;2.20;;
11283;SDS011;5698;47.332;11.180;2023-07-20T14:38:35;2.90;;;2.30;;
11283;SDS011;5698;47.332;11.180;2023-07-20T14:41:02;3.63;;;2.70;;
11283;SDS011;5698;47.332;11.180;2023-07-20T14:43:31;2.90;;;2.10;;
11283;SDS011;5698;47.332;11.180;2023-07-20T14:45:58;5.53;;;2.33;;
11283;SDS011;5698;47.332;11.180;2023-07-20T14:48:24;3.33;;;2.10;;
11283;SDS011;5698;47.332;11.180;2023-07-20T14:50:51;3.23;;;2.47;;
11283;SDS011;5698;47.332;11.180;2023-07-20T14:53:20;2.90;;;2.23;;
11283;SDS011;5698;47.332;11.180;2023-07-20T14:55:47;4.60;;;2.50;;
11283;SDS011;5698;47.332;11.180;2023-07-20T14:58:14;2.93;;;2.40;;